Time;durP1;ratioP1;P1;durP2;ratioP2;P2;SDS_P1;SDS_P2;PMS_P1;PMS_P2;Temp;Humidity;BMP_temperature;BMP_pressure;BME280_temperature;BME280_humidity;BME280_pressure;Samples;Min_cycle;Max_cycle;Signal;HPM_P1;HPM_P2
2023/05/09 00:00:36;;;;;;;;;;;;;;;2.46;100.00;98094.16;110216;1242;70594;-74
2023/05/09 00:03:13;;;;;;;;;;;;;;;2.44;100.00;98090.62;110185;1242;69627;-75
2023/05/09 00:05:45;;;;;;;;;;;;;;;2.40;100.00;98090.04;110152;1242;69127;-74
2023/05/09 00:08:16;;;;;;;;;;;;;;;2.36;100.00;98091.73;110133;1243;59734;-74
2023/05/09 00:10:47;;;;;;;;;;;;;;;2.31;100.00;98090.64;110215;1242;59663;-74
2023/05/09 00:13:17;;;;;;;;;;;;;;;2.28;100.00;98091.41;110191;1240;70497;-74
2023/05/09 00:15:47;;;;;;;;;;;;;;;2.22;100.00;98086.93;110163;1241;68601;-74
2023/05/09 00:18:17;;;;;;;;;;;;;;;2.17;100.00;98087.78;110142;1243;67343;-73
2023/05/09 00:20:47;;;;;;;;;;;;;;;2.12;100.00;98087.40;110170;1243;60206;-74
2023/05/09 00:23:17;;;;;;;;;;;;;;;2.09;100.00;98085.09;110179;1242;59669;-74
2023/05/09 00:25:47;;;;;;;;;;;;;;;2.04;100.00;98084.88;110199;1242;71978;-74
2023/05/09 00:28:18;;;;;;;;;;;;;;;2.01;100.00;98085.98;110195;1242;69380;-74
2023/05/09 00:30:49;;;;;;;;;;;;;;;2.00;100.00;98081.73;110241;1241;68408;-74
2023/05/09 00:33:25;;;;;;;;;;;;;;;1.96;100.00;98081.81;110201;1241;59718;-75
2023/05/09 00:35:56;;;;;;;;;;;;;;;1.91;100.00;98081.09;110137;1241;59695;-75
2023/05/09 00:38:27;;;;;;;;;;;;;;;1.87;100.00;98076.91;110233;1249;71256;-75
2023/05/09 00:40:58;;;;;;;;;;;;;;;1.84;100.00;98072.20;110204;1242;69582;-74
2023/05/09 00:43:29;;;;;;;;;;;;;;;1.82;100.00;98072.94;110108;1247;68576;-74
2023/05/09 00:46:01;;;;;;;;;;;;;;;1.79;100.00;98071.48;110161;1241;59711;-75
2023/05/09 00:48:31;;;;;;;;;;;;;;;1.73;100.00;98073.01;110286;1249;59748;-75
2023/05/09 00:51:03;;;;;;;;;;;;;;;1.67;100.00;98077.30;110279;1242;71382;-74
2023/05/09 00:53:36;;;;;;;;;;;;;;;1.63;100.00;98075.35;110262;1243;69098;-75
2023/05/09 00:56:07;;;;;;;;;;;;;;;1.62;100.00;98078.11;110242;1241;69213;-74
2023/05/09 00:58:37;;;;;;;;;;;;;;;1.60;100.00;98081.77;110219;1241;59667;-74
2023/05/09 01:01:07;;;;;;;;;;;;;;;1.60;100.00;98083.33;110186;1244;59667;-74
2023/05/09 01:03:40;;;;;;;;;;;;;;;1.59;100.00;98083.54;110387;1242;70268;-74
2023/05/09 01:06:18;;;;;;;;;;;;;;;1.56;100.00;98086.66;110234;1245;68315;-74
2023/05/09 01:08:48;;;;;;;;;;;;;;;1.58;100.00;98091.63;110114;1242;69530;-75
2023/05/09 01:11:23;;;;;;;;;;;;;;;1.59;100.00;98090.23;110177;1241;59742;-75
2023/05/09 01:13:53;;;;;;;;;;;;;;;1.56;100.00;98088.56;110235;1242;59599;-75
2023/05/09 01:16:46;;;;;;;;;;;;;;;1.53;100.00;98087.27;110201;1242;72113;-74
2023/05/09 01:19:16;;;;;;;;;;;;;;;1.51;100.00;98089.71;110120;1242;68611;-74
2023/05/09 01:21:47;;;;;;;;;;;;;;;1.52;100.00;98091.75;110197;1242;69283;-75
2023/05/09 01:24:31;;;;;;;;;;;;;;;1.52;100.00;98095.88;110143;1245;59675;-75
2023/05/09 01:27:19;;;;;;;;;;;;;;;1.49;100.00;98096.15;110251;1242;59699;-74
2023/05/09 01:29:57;;;;;;;;;;;;;;;1.48;100.00;98092.73;110238;1242;71401;-76
2023/05/09 01:32:30;;;;;;;;;;;;;;;1.45;100.00;98089.54;110231;1251;69115;-74
2023/05/09 01:35:02;;;;;;;;;;;;;;;1.46;100.00;98091.56;110259;1247;69217;-74
2023/05/09 01:37:35;;;;;;;;;;;;;;;1.47;100.00;98096.36;110227;1242;60115;-74
2023/05/09 01:40:15;;;;;;;;;;;;;;;1.49;100.00;98096.33;110247;1240;59678;-73
2023/05/09 01:42:49;;;;;;;;;;;;;;;1.55;100.00;98093.42;110236;1242;71400;-74
2023/05/09 01:45:19;;;;;;;;;;;;;;;1.61;100.00;98094.97;110227;1242;69209;-74
2023/05/09 01:47:49;;;;;;;;;;;;;;;1.72;100.00;98093.47;110192;1244;69875;-74
2023/05/09 01:50:21;;;;;;;;;;;;;;;1.80;100.00;98094.13;110136;1244;59741;-74
2023/05/09 01:52:58;;;;;;;;;;;;;;;1.83;100.00;98095.42;110260;1242;59647;-74
2023/05/09 01:55:33;;;;;;;;;;;;;;;1.88;100.00;98090.14;110138;1244;71238;-74
2023/05/09 01:58:05;;;;;;;;;;;;;;;1.92;100.00;98087.97;110190;1245;69242;-74
2023/05/09 02:00:37;;;;;;;;;;;;;;;1.96;100.00;98089.73;110104;1245;67532;-74
2023/05/09 02:03:11;;;;;;;;;;;;;;;2.03;100.00;98091.61;110174;1244;59693;-73
2023/05/09 02:05:44;;;;;;;;;;;;;;;2.08;100.00;98088.73;109517;1241;846649;-74
2023/05/09 02:08:17;;;;;;;;;;;;;;;2.10;100.00;98084.71;110131;1244;70965;-74
2023/05/09 02:10:48;;;;;;;;;;;;;;;2.14;100.00;98085.48;110193;1243;68613;-74
2023/05/09 02:13:18;;;;;;;;;;;;;;;2.17;100.00;98084.34;110161;1245;69410;-74
2023/05/09 02:15:49;;;;;;;;;;;;;;;2.21;100.00;98081.46;110089;1242;59742;-74
2023/05/09 02:18:20;;;;;;;;;;;;;;;2.24;100.00;98084.50;110122;1245;59687;-74
2023/05/09 02:20:53;;;;;;;;;;;;;;;2.25;100.00;98076.20;110151;1241;71810;-74
2023/05/09 02:23:27;;;;;;;;;;;;;;;2.25;100.00;98078.77;110178;1241;69064;-74
2023/05/09 02:26:01;;;;;;;;;;;;;;;2.27;100.00;98076.66;110173;1241;69270;-74
2023/05/09 02:28:32;;;;;;;;;;;;;;;2.27;100.00;98081.13;110136;1244;59718;-74
2023/05/09 02:31:06;;;;;;;;;;;;;;;2.30;100.00;98077.61;110154;1244;59685;-74
2023/05/09 02:33:37;;;;;;;;;;;;;;;2.33;100.00;98083.02;110202;1244;71406;-74
2023/05/09 02:36:11;;;;;;;;;;;;;;;2.35;100.00;98079.52;110178;1244;69729;-74
2023/05/09 02:38:44;;;;;;;;;;;;;;;2.38;100.00;98081.48;110126;1241;69102;-74
2023/05/09 02:41:15;;;;;;;;;;;;;;;2.39;100.00;98078.35;110121;1244;59705;-74
2023/05/09 02:43:46;;;;;;;;;;;;;;;2.38;100.00;98078.73;110120;1245;59738;-74
2023/05/09 02:46:19;;;;;;;;;;;;;;;2.39;100.00;98076.48;110154;1244;71514;-74
2023/05/09 02:48:51;;;;;;;;;;;;;;;2.41;100.00;98075.58;110138;1243;68452;-74
2023/05/09 02:51:25;;;;;;;;;;;;;;;2.40;100.00;98079.20;110081;1245;69204;-74
2023/05/09 02:53:57;;;;;;;;;;;;;;;2.39;100.00;98081.63;110119;1241;59754;-74
2023/05/09 02:56:27;;;;;;;;;;;;;;;2.39;100.00;98089.71;110122;1244;59710;-73
2023/05/09 02:58:57;;;;;;;;;;;;;;;2.37;100.00;98092.39;110136;1245;72327;-73
2023/05/09 03:01:27;;;;;;;;;;;;;;;2.34;100.00;98095.56;110147;1244;69291;-74
2023/05/09 03:03:57;;;;;;;;;;;;;;;2.29;100.00;98097.92;110109;1243;67753;-74
2023/05/09 03:06:27;;;;;;;;;;;;;;;2.30;100.00;98100.13;110156;1242;59685;-72
2023/05/09 03:08:57;;;;;;;;;;;;;;;2.30;100.00;98102.52;110190;1242;59643;-74
2023/05/09 03:11:29;;;;;;;;;;;;;;;2.32;100.00;98104.39;110169;1240;71207;-73
2023/05/09 03:14:00;;;;;;;;;;;;;;;2.32;100.00;98100.43;110106;1244;68508;-73
2023/05/09 03:16:30;;;;;;;;;;;;;;;2.37;100.00;98106.14;110167;1241;69301;-74
2023/05/09 03:19:00;;;;;;;;;;;;;;;2.41;100.00;98102.57;110132;1240;59723;-74
2023/05/09 03:21:31;;;;;;;;;;;;;;;2.47;100.00;98110.14;110167;1240;59733;-74
2023/05/09 03:24:03;;;;;;;;;;;;;;;2.53;100.00;98109.62;110239;1248;70557;-73
2023/05/09 03:26:34;;;;;;;;;;;;;;;2.61;100.00;98111.45;110202;1241;69681;-73
2023/05/09 03:29:04;;;;;;;;;;;;;;;2.70;100.00;98114.46;110122;1244;68447;-74
2023/05/09 03:31:33;;;;;;;;;;;;;;;2.78;100.00;98112.46;110189;1242;59750;-74
2023/05/09 03:34:03;;;;;;;;;;;;;;;2.86;100.00;98118.45;110210;1241;59745;-74
2023/05/09 03:36:32;;;;;;;;;;;;;;;2.91;100.00;98117.59;110180;1242;71247;-74
2023/05/09 03:39:03;;;;;;;;;;;;;;;2.90;100.00;98121.05;110123;1244;69838;-73
2023/05/09 03:41:34;;;;;;;;;;;;;;;2.94;100.00;98120.45;110222;1241;68566;-73
2023/05/09 03:44:04;;;;;;;;;;;;;;;2.97;100.00;98116.73;110159;1242;59725;-73
2023/05/09 03:46:34;;;;;;;;;;;;;;;3.02;100.00;98123.60;110122;1242;59696;-73
2023/05/09 03:49:03;;;;;;;;;;;;;;;3.08;100.00;98122.04;110128;1242;71888;-73
2023/05/09 03:51:33;;;;;;;;;;;;;;;3.14;100.00;98123.93;110142;1244;69821;-74
2023/05/09 03:54:03;;;;;;;;;;;;;;;3.21;100.00;98128.02;110143;1244;69674;-74
2023/05/09 03:56:32;;;;;;;;;;;;;;;3.27;100.00;98126.96;110208;1241;59694;-73
2023/05/09 03:59:02;;;;;;;;;;;;;;;3.35;100.00;98136.88;110116;1243;59742;-73
2023/05/09 04:01:32;;;;;;;;;;;;;;;3.41;100.00;98132.20;110133;1240;71389;-73
2023/05/09 04:04:03;;;;;;;;;;;;;;;3.49;100.00;98135.71;110143;1241;68506;-74
2023/05/09 04:06:35;;;;;;;;;;;;;;;3.57;100.00;98133.55;110155;1241;68910;-75
2023/05/09 04:09:06;;;;;;;;;;;;;;;3.67;100.00;98137.02;110205;1242;59762;-74
2023/05/09 04:11:36;;;;;;;;;;;;;;;3.76;100.00;98131.73;110186;1242;59697;-73
2023/05/09 04:14:07;;;;;;;;;;;;;;;3.85;100.00;98131.95;110197;1242;71186;-74
2023/05/09 04:16:36;;;;;;;;;;;;;;;3.98;100.00;98131.66;110192;1243;68804;-74
2023/05/09 04:19:06;;;;;;;;;;;;;;;4.07;100.00;98132.89;110126;1248;69713;-73
2023/05/09 04:21:36;;;;;;;;;;;;;;;4.16;100.00;98130.52;110106;1244;59685;-73
2023/05/09 04:24:05;;;;;;;;;;;;;;;4.20;100.00;98133.13;110081;1244;59715;-73
2023/05/09 04:26:42;;;;;;;;;;;;;;;4.23;100.00;98136.81;110160;1242;70876;-74
2023/05/09 04:29:14;;;;;;;;;;;;;;;4.25;100.00;98138.65;110186;1242;69510;-74
2023/05/09 04:31:48;;;;;;;;;;;;;;;4.32;100.00;98143.58;110121;1248;69859;-74
2023/05/09 04:34:19;;;;;;;;;;;;;;;4.34;100.00;98140.20;110102;1245;60139;-74
2023/05/09 04:36:48;;;;;;;;;;;;;;;4.40;100.00;98143.81;110158;1244;59733;-74
2023/05/09 04:39:18;;;;;;;;;;;;;;;4.48;100.00;98140.75;110213;1244;70631;-73
2023/05/09 04:41:54;;;;;;;;;;;;;;;4.54;100.00;98140.15;110206;1242;68662;-73
2023/05/09 04:44:23;;;;;;;;;;;;;;;4.64;100.00;98141.88;110070;1241;69140;-73
2023/05/09 04:46:53;;;;;;;;;;;;;;;4.75;100.00;98143.18;110146;1243;59737;-73
2023/05/09 04:49:23;;;;;;;;;;;;;;;4.78;100.00;98143.77;110220;1241;59721;-73
2023/05/09 04:51:52;;;;;;;;;;;;;;;4.84;100.00;98142.35;110196;1242;69761;-73
2023/05/09 04:54:22;;;;;;;;;;;;;;;4.86;100.00;98143.80;110240;1242;68371;-73
2023/05/09 04:56:52;;;;;;;;;;;;;;;4.92;100.00;98145.66;110127;1241;69239;-73
2023/05/09 04:59:31;;;;;;;;;;;;;;;5.08;100.00;98148.48;110087;1244;59702;-74
2023/05/09 05:02:01;;;;;;;;;;;;;;;5.23;100.00;98150.17;110253;1241;59756;-73
2023/05/09 05:04:31;;;;;;;;;;;;;;;5.37;100.00;98149.60;110078;1244;71529;-74
2023/05/09 05:07:01;;;;;;;;;;;;;;;5.51;100.00;98152.46;110146;1241;69671;-73
2023/05/09 05:09:31;;;;;;;;;;;;;;;5.71;100.00;98154.62;110097;1244;69869;-72
2023/05/09 05:12:00;;;;;;;;;;;;;;;5.90;100.00;98156.44;110141;1244;59715;-72
2023/05/09 05:14:34;;;;;;;;;;;;;;;6.09;100.00;98160.46;110134;1244;59690;-75
2023/05/09 05:17:03;;;;;;;;;;;;;;;6.20;100.00;98162.09;110112;1244;70632;-73
2023/05/09 05:19:33;;;;;;;;;;;;;;;6.27;100.00;98165.77;110151;1244;69268;-72
2023/05/09 05:22:02;;;;;;;;;;;;;;;6.42;100.00;98164.91;110108;1244;68710;-73
2023/05/09 05:24:32;;;;;;;;;;;;;;;6.58;100.00;98166.46;110146;1241;59702;-73
2023/05/09 05:27:02;;;;;;;;;;;;;;;6.67;99.11;98166.07;110150;1243;59676;-73
2023/05/09 05:29:31;;;;;;;;;;;;;;;6.69;96.67;98163.21;110158;1241;71326;-73
2023/05/09 05:32:01;;;;;;;;;;;;;;;6.79;96.31;98160.30;110165;1241;69045;-74
2023/05/09 05:34:30;;;;;;;;;;;;;;;6.93;94.78;98158.14;110071;1241;70259;-74
2023/05/09 05:36:59;;;;;;;;;;;;;;;7.07;94.69;98162.30;110115;1243;59671;-73
2023/05/09 05:39:29;;;;;;;;;;;;;;;7.22;95.99;98159.03;110171;1245;59700;-74
2023/05/09 05:41:58;;;;;;;;;;;;;;;7.34;94.43;98159.30;110155;1244;71459;-74
2023/05/09 05:44:27;;;;;;;;;;;;;;;7.38;90.52;98160.84;110140;1244;69812;-73
2023/05/09 05:46:57;;;;;;;;;;;;;;;7.44;87.94;98159.38;110099;1241;70204;-73
2023/05/09 05:49:26;;;;;;;;;;;;;;;7.44;88.74;98159.52;110142;1244;59709;-74
2023/05/09 05:51:56;;;;;;;;;;;;;;;7.48;89.42;98159.00;110142;1244;59753;-73
2023/05/09 05:54:26;;;;;;;;;;;;;;;7.53;87.46;98158.39;110168;1243;72239;-74
2023/05/09 05:56:55;;;;;;;;;;;;;;;7.72;86.19;98161.13;110135;1241;69166;-74
2023/05/09 05:59:24;;;;;;;;;;;;;;;7.73;81.91;98158.45;110120;1241;69379;-74
2023/05/09 06:01:54;;;;;;;;;;;;;;;7.87;80.98;98158.98;110139;1241;59698;-75
2023/05/09 06:04:22;;;;;;;;;;;;;;;8.01;80.57;98158.08;110157;1241;59697;-72
2023/05/09 06:06:52;;;;;;;;;;;;;;;8.11;78.64;98158.61;110194;1241;71952;-73
2023/05/09 06:09:21;;;;;;;;;;;;;;;8.19;79.93;98158.08;110186;1240;68756;-74
2023/05/09 06:11:52;;;;;;;;;;;;;;;8.27;78.63;98157.33;110184;1242;69158;-72
2023/05/09 06:14:21;;;;;;;;;;;;;;;8.43;78.54;98155.61;110182;1242;59709;-73
2023/05/09 06:16:50;;;;;;;;;;;;;;;8.57;78.58;98156.63;110236;1242;59694;-73
2023/05/09 06:19:20;;;;;;;;;;;;;;;8.59;77.64;98155.83;110118;1245;71410;-74
2023/05/09 06:21:49;;;;;;;;;;;;;;;8.72;74.56;98153.94;110234;1242;69837;-72
2023/05/09 06:24:17;;;;;;;;;;;;;;;8.87;71.98;98155.00;110221;1242;69266;-75
2023/05/09 06:27:04;;;;;;;;;;;;;;;9.17;71.92;98152.33;110247;1241;59688;-73
2023/05/09 06:29:32;;;;;;;;;;;;;;;9.49;69.83;98153.64;110234;1242;59625;-74
2023/05/09 06:32:02;;;;;;;;;;;;;;;9.72;67.87;98157.91;110177;1240;71969;-73
2023/05/09 06:34:31;;;;;;;;;;;;;;;10.02;69.11;98163.14;110179;1241;69638;-73
2023/05/09 06:37:00;;;;;;;;;;;;;;;10.37;68.70;98160.78;110252;1242;69250;-75
2023/05/09 06:39:29;;;;;;;;;;;;;;;10.69;70.63;98160.36;110219;1242;59973;-73
2023/05/09 06:41:58;;;;;;;;;;;;;;;10.56;65.23;98160.81;110218;1241;59709;-73
2023/05/09 06:44:31;;;;;;;;;;;;;;;10.44;65.03;98155.29;110118;1242;71267;-74
2023/05/09 06:47:00;;;;;;;;;;;;;;;10.39;64.41;98155.05;110223;1241;69803;-73
2023/05/09 06:49:29;;;;;;;;;;;;;;;10.58;63.12;98152.71;110220;1241;69250;-75
2023/05/09 06:51:58;;;;;;;;;;;;;;;10.88;63.43;98148.92;110219;1242;59728;-74
2023/05/09 06:54:27;;;;;;;;;;;;;;;11.09;61.40;98147.12;110212;1247;59747;-74
2023/05/09 06:56:55;;;;;;;;;;;;;;;11.42;61.17;98144.99;110177;1242;71980;-74
2023/05/09 06:59:24;;;;;;;;;;;;;;;12.04;60.50;98144.55;110271;1242;69261;-75
2023/05/09 07:01:53;;;;;;;;;;;;;;;12.73;58.45;98137.77;110196;1241;68492;-73
2023/05/09 07:04:21;;;;;;;;;;;;;;;13.15;53.27;98134.08;110173;1240;59680;-73
2023/05/09 07:06:50;;;;;;;;;;;;;;;13.84;55.17;98133.77;110208;1241;59740;-73
2023/05/09 07:09:19;;;;;;;;;;;;;;;14.13;52.95;98130.91;110216;1241;70759;-73
2023/05/09 07:11:48;;;;;;;;;;;;;;;14.27;53.31;98125.96;110213;1242;69802;-74
2023/05/09 07:14:17;;;;;;;;;;;;;;;14.89;51.02;98121.73;110210;1240;68384;-75
2023/05/09 07:16:46;;;;;;;;;;;;;;;15.37;51.21;98121.87;110206;1241;59696;-73
2023/05/09 07:19:15;;;;;;;;;;;;;;;15.66;49.70;98125.54;110252;1242;59637;-74
2023/05/09 07:21:44;;;;;;;;;;;;;;;15.34;46.38;98123.02;110199;1241;71225;-73
2023/05/09 07:24:13;;;;;;;;;;;;;;;15.62;46.49;98119.17;110193;1242;69827;-72
2023/05/09 07:26:42;;;;;;;;;;;;;;;16.00;46.58;98122.20;110192;1241;68553;-74
2023/05/09 07:29:11;;;;;;;;;;;;;;;15.73;46.49;98119.31;110219;1241;59772;-74
2023/05/09 07:31:39;;;;;;;;;;;;;;;16.05;47.11;98119.34;110245;1242;59698;-73
2023/05/09 07:34:09;;;;;;;;;;;;;;;16.36;45.83;98121.42;110200;1242;70263;-73
2023/05/09 07:36:37;;;;;;;;;;;;;;;16.50;44.12;98116.75;110161;1242;68222;-73
2023/05/09 07:39:07;;;;;;;;;;;;;;;16.77;45.32;98111.23;110156;1242;69890;-73
2023/05/09 07:41:36;;;;;;;;;;;;;;;16.95;44.75;98108.43;110185;1241;59754;-73
2023/05/09 07:44:05;;;;;;;;;;;;;;;17.29;44.55;98109.09;110192;1242;59672;-73
2023/05/09 07:46:36;;;;;;;;;;;;;;;17.51;43.97;98111.22;110208;1242;70592;-74
2023/05/09 07:49:05;;;;;;;;;;;;;;;17.73;43.48;98112.22;110250;1242;69820;-73
2023/05/09 07:51:33;;;;;;;;;;;;;;;17.89;41.57;98108.59;110177;1242;69737;-73
2023/05/09 07:54:02;;;;;;;;;;;;;;;18.50;42.34;98105.98;110197;1242;59725;-73
2023/05/09 07:56:31;;;;;;;;;;;;;;;18.72;39.61;98104.31;110231;1240;59715;-73
2023/05/09 07:59:02;;;;;;;;;;;;;;;18.69;39.44;98101.52;110127;1241;71240;-73
2023/05/09 08:01:31;;;;;;;;;;;;;;;18.52;39.72;98102.05;110237;1242;69801;-74
2023/05/09 08:04:00;;;;;;;;;;;;;;;18.62;39.52;98100.66;110219;1240;69156;-74
2023/05/09 08:06:29;;;;;;;;;;;;;;;18.15;40.18;98096.58;110170;1242;59771;-74
2023/05/09 08:08:58;;;;;;;;;;;;;;;18.21;40.24;98093.20;110241;1241;59683;-74
2023/05/09 08:11:27;;;;;;;;;;;;;;;18.30;40.26;98093.86;110236;1240;71971;-72
2023/05/09 08:13:56;;;;;;;;;;;;;;;18.11;39.05;98089.69;110244;1242;69055;-74
2023/05/09 08:16:25;;;;;;;;;;;;;;;18.16;39.62;98085.34;110204;1242;69847;-74
2023/05/09 08:18:54;;;;;;;;;;;;;;;18.35;38.17;98086.44;110205;1240;59679;-74
2023/05/09 08:21:23;;;;;;;;;;;;;;;18.43;38.37;98083.91;110198;1242;59668;-74
2023/05/09 08:23:52;;;;;;;;;;;;;;;18.29;37.43;98081.80;110237;1240;72085;-74
2023/05/09 08:26:22;;;;;;;;;;;;;;;18.21;37.86;98078.01;110199;1241;69717;-74
2023/05/09 08:28:52;;;;;;;;;;;;;;;18.76;38.92;98075.06;110204;1241;70035;-72
2023/05/09 08:31:21;;;;;;;;;;;;;;;19.29;38.35;98078.41;110177;1242;59737;-74
2023/05/09 08:33:50;;;;;;;;;;;;;;;19.71;36.33;98075.89;110205;1249;60068;-73
2023/05/09 08:36:19;;;;;;;;;;;;;;;20.15;35.37;98073.64;110248;1242;72408;-73
2023/05/09 08:38:48;;;;;;;;;;;;;;;20.17;34.56;98073.73;110225;1242;69214;-73
2023/05/09 08:41:22;;;;;;;;;;;;;;;19.93;35.06;98073.71;110228;1242;69874;-73
2023/05/09 08:43:52;;;;;;;;;;;;;;;19.59;36.52;98073.40;110194;1242;60066;-73
2023/05/09 08:46:26;;;;;;;;;;;;;;;19.70;36.36;98069.14;110229;1242;59624;-73
2023/05/09 08:48:55;;;;;;;;;;;;;;;19.82;36.46;98064.40;110236;1242;71798;-73
2023/05/09 08:51:24;;;;;;;;;;;;;;;19.59;36.10;98062.95;110234;1241;69254;-72
2023/05/09 08:53:54;;;;;;;;;;;;;;;19.69;35.39;98057.77;110172;1242;69278;-73
2023/05/09 08:56:23;;;;;;;;;;;;;;;19.60;35.99;98054.33;110222;1241;59743;-73
2023/05/09 08:58:53;;;;;;;;;;;;;;;19.30;36.33;98054.11;110237;1242;59673;-73
2023/05/09 09:01:22;;;;;;;;;;;;;;;18.96;35.83;98055.36;110215;1241;71350;-73
2023/05/09 09:03:51;;;;;;;;;;;;;;;18.68;35.82;98057.52;110222;1242;69115;-72
2023/05/09 09:06:21;;;;;;;;;;;;;;;18.23;36.81;98059.27;110193;1242;68529;-72
2023/05/09 09:08:51;;;;;;;;;;;;;;;17.57;38.14;98057.25;110227;1242;60150;-72
2023/05/09 09:11:21;;;;;;;;;;;;;;;17.91;37.11;98055.02;110236;1240;59740;-72
2023/05/09 09:13:51;;;;;;;;;;;;;;;18.36;36.32;98052.58;110235;1240;71204;-72
2023/05/09 09:16:21;;;;;;;;;;;;;;;18.65;35.17;98044.34;110244;1240;70276;-74
2023/05/09 09:18:51;;;;;;;;;;;;;;;18.50;35.57;98037.51;110173;1242;69928;-72
2023/05/09 09:21:19;;;;;;;;;;;;;;;18.05;35.43;98039.95;110208;1241;59702;-73
2023/05/09 09:23:49;;;;;;;;;;;;;;;18.07;36.79;98041.27;110240;1242;59688;-73
2023/05/09 09:26:17;;;;;;;;;;;;;;;17.67;37.83;98040.50;110226;1242;71386;-72
2023/05/09 09:28:46;;;;;;;;;;;;;;;17.56;36.67;98040.27;110185;1242;69009;-72
2023/05/09 09:31:22;;;;;;;;;;;;;;;17.10;36.42;98042.10;110190;1242;69685;-72
2023/05/09 09:33:50;;;;;;;;;;;;;;;16.87;37.18;98036.62;110240;1242;59734;-72
2023/05/09 09:36:27;;;;;;;;;;;;;;;17.54;37.47;98042.01;110227;1242;59667;-72
2023/05/09 09:38:57;;;;;;;;;;;;;;;18.45;35.66;98032.17;110195;1241;71077;-72
2023/05/09 09:41:33;;;;;;;;;;;;;;;18.76;33.36;98030.64;110229;1241;68284;-72
2023/05/09 09:44:08;;;;;;;;;;;;;;;18.52;34.82;98026.04;110178;1242;69806;-72
2023/05/09 09:46:41;;;;;;;;;;;;;;;18.70;34.89;98022.21;110190;1242;59747;-73
2023/05/09 09:49:14;;;;;;;;;;;;;;;19.13;35.64;98022.80;110206;1240;59753;-72
2023/05/09 09:51:43;;;;;;;;;;;;;;;19.22;34.38;98021.00;110253;1242;71316;-72
2023/05/09 09:54:13;;;;;;;;;;;;;;;18.82;34.73;98022.84;110189;1241;69236;-73
2023/05/09 09:56:44;;;;;;;;;;;;;;;18.45;34.83;98028.66;110217;1241;69806;-73
2023/05/09 09:59:14;;;;;;;;;;;;;;;18.00;34.96;98032.00;110152;1242;59671;-72
2023/05/09 10:01:56;;;;;;;;;;;;;;;17.52;35.53;98031.83;110242;1243;59679;-71
2023/05/09 10:04:27;;;;;;;;;;;;;;;17.00;35.97;98026.34;110238;1242;70252;-73
2023/05/09 10:07:06;;;;;;;;;;;;;;;16.90;36.67;98021.75;110230;1242;69216;-73
2023/05/09 10:09:36;;;;;;;;;;;;;;;16.78;37.37;98016.27;110214;1242;69839;-74
2023/05/09 10:12:07;;;;;;;;;;;;;;;16.53;37.18;98015.08;110194;1242;60183;-74
2023/05/09 10:14:37;;;;;;;;;;;;;;;16.33;38.16;98012.27;110171;1242;59757;-74
2023/05/09 10:17:07;;;;;;;;;;;;;;;16.26;38.54;98015.71;110215;1242;71815;-73
2023/05/09 10:19:37;;;;;;;;;;;;;;;16.21;38.21;98017.93;110196;1242;69885;-73
2023/05/09 10:22:08;;;;;;;;;;;;;;;16.40;38.62;98013.08;110179;1242;69110;-72
2023/05/09 10:25:07;;;;;;;;;;;;;;;16.55;38.50;98009.13;110196;1242;59753;-73
2023/05/09 10:27:35;;;;;;;;;;;;;;;16.64;38.74;98005.54;110067;1241;59740;-73
2023/05/09 10:30:11;;;;;;;;;;;;;;;16.68;38.10;98004.30;110202;1242;71228;-74
2023/05/09 10:32:46;;;;;;;;;;;;;;;16.71;38.14;98002.77;110231;1240;68301;-72
2023/05/09 10:35:16;;;;;;;;;;;;;;;17.00;38.16;98005.34;110200;1242;69614;-73
2023/05/09 10:37:45;;;;;;;;;;;;;;;17.14;37.32;98009.23;110235;1241;60049;-72
2023/05/09 10:40:14;;;;;;;;;;;;;;;16.99;36.93;98005.45;110207;1242;59678;-74
2023/05/09 10:42:43;;;;;;;;;;;;;;;16.75;36.79;98000.54;110225;1241;71799;-74
2023/05/09 10:45:12;;;;;;;;;;;;;;;16.57;37.27;97988.38;110167;1241;69029;-74
2023/05/09 10:47:42;;;;;;;;;;;;;;;16.16;39.12;97987.56;110197;1242;69810;-75
2023/05/09 10:50:12;;;;;;;;;;;;;;;15.97;40.19;98007.44;110211;1241;59705;-74
2023/05/09 10:52:59;;;;;;;;;;;;;;;15.88;41.53;98009.50;110224;1241;59652;-74
2023/05/09 10:55:46;;;;;;;;;;;;;;;15.75;40.90;98006.92;110200;1241;71362;-74
2023/05/09 10:58:19;;;;;;;;;;;;;;;15.76;42.40;98006.77;110224;1240;68533;-74
2023/05/09 11:00:49;;;;;;;;;;;;;;;15.77;41.49;98007.43;110214;1241;68328;-74
2023/05/09 11:03:18;;;;;;;;;;;;;;;15.87;40.63;98008.88;110206;1243;59601;-74
2023/05/09 11:05:50;;;;;;;;;;;;;;;15.76;40.03;98007.48;110161;1241;59711;-72
2023/05/09 11:08:21;;;;;;;;;;;;;;;15.56;40.19;98005.27;110169;1242;71829;-74
2023/05/09 11:10:51;;;;;;;;;;;;;;;15.35;41.37;98010.74;110217;1242;69743;-73
2023/05/09 11:13:24;;;;;;;;;;;;;;;15.27;42.22;98008.36;110180;1241;69125;-75
2023/05/09 11:15:59;;;;;;;;;;;;;;;15.26;41.21;98004.06;110177;1242;59689;-74
2023/05/09 11:18:29;;;;;;;;;;;;;;;15.30;41.62;98003.55;110254;1242;59637;-74
2023/05/09 11:20:58;;;;;;;;;;;;;;;15.44;41.58;98003.17;110222;1242;71222;-73
2023/05/09 11:23:29;;;;;;;;;;;;;;;15.51;41.26;98005.72;110213;1242;68637;-75
2023/05/09 11:26:05;;;;;;;;;;;;;;;15.46;41.14;98006.85;110198;1242;69863;-74
2023/05/09 11:28:35;;;;;;;;;;;;;;;15.39;41.43;97999.66;110230;1241;60210;-73
2023/05/09 11:31:17;;;;;;;;;;;;;;;15.40;41.18;97998.01;110251;1242;59694;-73
2023/05/09 11:33:53;;;;;;;;;;;;;;;15.28;40.78;98000.38;110274;1242;70819;-74
2023/05/09 11:36:28;;;;;;;;;;;;;;;15.33;40.94;97998.95;110221;1242;70080;-73
2023/05/09 11:39:02;;;;;;;;;;;;;;;15.32;41.17;97998.89;110199;1241;69236;-73
2023/05/09 11:41:38;;;;;;;;;;;;;;;15.29;41.37;97999.99;110209;1241;59688;-73
2023/05/09 11:44:19;;;;;;;;;;;;;;;15.42;41.30;98004.02;110198;1241;59692;-73
2023/05/09 11:46:48;;;;;;;;;;;;;;;15.25;40.89;97999.60;110191;1240;71940;-73
2023/05/09 11:49:19;;;;;;;;;;;;;;;15.33;41.14;97999.32;110232;1242;69142;-73
2023/05/09 11:51:48;;;;;;;;;;;;;;;15.31;40.49;97999.66;110226;1242;68934;-73
2023/05/09 11:54:16;;;;;;;;;;;;;;;15.25;40.86;97999.08;110214;1242;59730;-74
2023/05/09 11:56:45;;;;;;;;;;;;;;;15.20;41.16;97996.88;110192;1242;59680;-74
2023/05/09 11:59:14;;;;;;;;;;;;;;;15.24;40.90;97994.26;110124;1240;71373;-73
2023/05/09 12:01:43;;;;;;;;;;;;;;;15.36;41.49;97994.10;110212;1241;70075;-73
2023/05/09 12:04:12;;;;;;;;;;;;;;;15.58;41.17;97990.20;110170;1242;68317;-73
2023/05/09 12:06:45;;;;;;;;;;;;;;;15.79;40.34;97990.75;110201;1241;59702;-73
2023/05/09 12:09:15;;;;;;;;;;;;;;;15.86;39.61;97985.40;110231;1240;59708;-74
2023/05/09 12:11:49;;;;;;;;;;;;;;;16.04;39.80;97982.42;110261;1242;71328;-74
2023/05/09 12:14:31;;;;;;;;;;;;;;;16.35;39.71;97979.95;110234;1242;69672;-74
2023/05/09 12:17:00;;;;;;;;;;;;;;;16.53;38.86;97972.17;110295;1242;70021;-76
2023/05/09 12:19:30;;;;;;;;;;;;;;;16.75;39.12;97969.55;110244;1242;59750;-74
2023/05/09 12:21:59;;;;;;;;;;;;;;;17.01;39.27;97974.10;110311;1241;59682;-74
2023/05/09 12:24:28;;;;;;;;;;;;;;;17.31;38.22;97971.32;110295;1242;71937;-75
2023/05/09 12:26:58;;;;;;;;;;;;;;;17.54;37.94;97965.40;110299;1242;69647;-74
2023/05/09 12:29:28;;;;;;;;;;;;;;;17.76;37.76;97963.70;110283;1242;69331;-74
2023/05/09 12:31:56;;;;;;;;;;;;;;;17.65;36.80;97964.89;110316;1242;59817;-74
2023/05/09 12:34:26;;;;;;;;;;;;;;;17.65;37.42;97962.54;110380;1242;59691;-73
2023/05/09 12:36:54;;;;;;;;;;;;;;;17.66;36.59;97958.65;110280;1242;71974;-74
2023/05/09 12:39:25;;;;;;;;;;;;;;;17.54;36.44;97957.79;110262;1241;69249;-74
2023/05/09 12:41:54;;;;;;;;;;;;;;;17.58;36.96;97949.48;110249;1241;69268;-74
2023/05/09 12:44:29;;;;;;;;;;;;;;;17.65;38.99;97945.35;110217;1242;59666;-75
2023/05/09 12:47:00;;;;;;;;;;;;;;;17.77;38.07;97939.41;110226;1242;59794;-74
2023/05/09 12:49:29;;;;;;;;;;;;;;;17.75;37.30;97943.50;110326;1242;70924;-75
2023/05/09 12:51:59;;;;;;;;;;;;;;;17.66;37.42;97937.09;110287;1241;69272;-74
2023/05/09 12:54:31;;;;;;;;;;;;;;;17.59;37.69;97934.95;110256;1242;69667;-74
2023/05/09 12:57:03;;;;;;;;;;;;;;;17.42;36.96;97938.13;110303;1241;59812;-75